sensor_id;sensor_type;location;lat;lon;timestamp;P1;durP1;ratioP1;P2;durP2;ratioP2
73642;SDS011;61938;48.652;9.292;2024-02-14T00:00:09;15.18;;;8.40;;
73642;SDS011;61938;48.652;9.292;2024-02-14T00:02:38;15.48;;;8.45;;
73642;SDS011;61938;48.652;9.292;2024-02-14T00:05:10;18.38;;;8.15;;
73642;SDS011;61938;48.652;9.292;2024-02-14T00:07:36;26.23;;;9.30;;
73642;SDS011;61938;48.652;9.292;2024-02-14T00:10:02;19.85;;;8.80;;
73642;SDS011;61938;48.652;9.292;2024-02-14T00:12:32;18.27;;;8.88;;
73642;SDS011;61938;48.652;9.292;2024-02-14T00:14:58;18.60;;;8.30;;
73642;SDS011;61938;48.652;9.292;2024-02-14T00:17:23;23.08;;;8.77;;
73642;SDS011;61938;48.652;9.292;2024-02-14T00:19:50;17.55;;;8.70;;
73642;SDS011;61938;48.652;9.292;2024-02-14T00:22:16;16.90;;;8.15;;
73642;SDS011;61938;48.652;9.292;2024-02-14T00:24:41;17.85;;;8.13;;
73642;SDS011;61938;48.652;9.292;2024-02-14T00:27:07;16.38;;;8.18;;
73642;SDS011;61938;48.652;9.292;2024-02-14T00:29:32;15.00;;;6.68;;
73642;SDS011;61938;48.652;9.292;2024-02-14T00:31:59;18.17;;;7.03;;
73642;SDS011;61938;48.652;9.292;2024-02-14T00:34:25;13.07;;;6.68;;
73642;SDS011;61938;48.652;9.292;2024-02-14T00:36:50;22.00;;;8.73;;
73642;SDS011;61938;48.652;9.292;2024-02-14T00:39:16;16.50;;;7.35;;
73642;SDS011;61938;48.652;9.292;2024-02-14T00:41:41;17.90;;;7.95;;
73642;SDS011;61938;48.652;9.292;2024-02-14T00:44:07;21.10;;;7.85;;
73642;SDS011;61938;48.652;9.292;2024-02-14T00:46:32;16.23;;;8.40;;
73642;SDS011;61938;48.652;9.292;2024-02-14T00:48:58;18.30;;;8.30;;
73642;SDS011;61938;48.652;9.292;2024-02-14T00:51:24;15.93;;;8.40;;
73642;SDS011;61938;48.652;9.292;2024-02-14T00:53:51;19.55;;;8.15;;
73642;SDS011;61938;48.652;9.292;2024-02-14T00:56:17;14.82;;;7.85;;
73642;SDS011;61938;48.652;9.292;2024-02-14T00:58:43;20.75;;;8.48;;
73642;SDS011;61938;48.652;9.292;2024-02-14T01:01:08;18.35;;;9.20;;
73642;SDS011;61938;48.652;9.292;2024-02-14T01:03:34;20.92;;;10.48;;
73642;SDS011;61938;48.652;9.292;2024-02-14T01:05:59;26.85;;;10.75;;
73642;SDS011;61938;48.652;9.292;2024-02-14T01:08:25;22.13;;;9.88;;
73642;SDS011;61938;48.652;9.292;2024-02-14T01:10:51;19.92;;;8.77;;
73642;SDS011;61938;48.652;9.292;2024-02-14T01:13:17;24.95;;;9.95;;
73642;SDS011;61938;48.652;9.292;2024-02-14T01:15:43;17.38;;;8.55;;
73642;SDS011;61938;48.652;9.292;2024-02-14T01:18:08;16.40;;;8.20;;
73642;SDS011;61938;48.652;9.292;2024-02-14T01:20:35;16.00;;;8.07;;
73642;SDS011;61938;48.652;9.292;2024-02-14T01:23:00;15.50;;;7.88;;
73642;SDS011;61938;48.652;9.292;2024-02-14T01:25:26;18.40;;;7.50;;
73642;SDS011;61938;48.652;9.292;2024-02-14T01:27:51;18.23;;;8.52;;
73642;SDS011;61938;48.652;9.292;2024-02-14T01:30:17;16.20;;;8.23;;
73642;SDS011;61938;48.652;9.292;2024-02-14T01:32:44;16.20;;;8.55;;
73642;SDS011;61938;48.652;9.292;2024-02-14T01:35:09;14.95;;;8.15;;
73642;SDS011;61938;48.652;9.292;2024-02-14T01:37:35;14.70;;;8.02;;
73642;SDS011;61938;48.652;9.292;2024-02-14T01:40:00;19.05;;;8.45;;
73642;SDS011;61938;48.652;9.292;2024-02-14T01:42:26;13.68;;;7.90;;
73642;SDS011;61938;48.652;9.292;2024-02-14T01:44:52;17.02;;;8.32;;
73642;SDS011;61938;48.652;9.292;2024-02-14T01:47:19;15.75;;;8.63;;
73642;SDS011;61938;48.652;9.292;2024-02-14T01:49:45;20.35;;;8.75;;
73642;SDS011;61938;48.652;9.292;2024-02-14T01:52:12;16.70;;;8.10;;
73642;SDS011;61938;48.652;9.292;2024-02-14T01:54:38;16.23;;;8.18;;
73642;SDS011;61938;48.652;9.292;2024-02-14T01:57:04;16.98;;;8.30;;
73642;SDS011;61938;48.652;9.292;2024-02-14T01:59:31;13.98;;;7.68;;
73642;SDS011;61938;48.652;9.292;2024-02-14T02:01:59;18.58;;;8.73;;
73642;SDS011;61938;48.652;9.292;2024-02-14T02:04:25;14.75;;;8.70;;
73642;SDS011;61938;48.652;9.292;2024-02-14T02:06:50;19.17;;;8.43;;
73642;SDS011;61938;48.652;9.292;2024-02-14T02:09:21;15.38;;;7.75;;
73642;SDS011;61938;48.652;9.292;2024-02-14T02:11:51;15.05;;;7.82;;
73642;SDS011;61938;48.652;9.292;2024-02-14T02:14:19;16.88;;;8.27;;
73642;SDS011;61938;48.652;9.292;2024-02-14T02:16:45;13.40;;;7.47;;
73642;SDS011;61938;48.652;9.292;2024-02-14T02:19:11;15.70;;;7.35;;
73642;SDS011;61938;48.652;9.292;2024-02-14T02:21:36;14.60;;;7.97;;
73642;SDS011;61938;48.652;9.292;2024-02-14T02:24:03;17.70;;;8.18;;
73642;SDS011;61938;48.652;9.292;2024-02-14T02:26:28;15.88;;;7.55;;
73642;SDS011;61938;48.652;9.292;2024-02-14T02:28:54;17.85;;;8.02;;
73642;SDS011;61938;48.652;9.292;2024-02-14T02:31:20;17.02;;;8.15;;
73642;SDS011;61938;48.652;9.292;2024-02-14T02:33:46;14.75;;;7.78;;
73642;SDS011;61938;48.652;9.292;2024-02-14T02:36:11;16.77;;;9.52;;
73642;SDS011;61938;48.652;9.292;2024-02-14T02:38:37;14.88;;;8.30;;
73642;SDS011;61938;48.652;9.292;2024-02-14T02:41:03;18.58;;;9.43;;
73642;SDS011;61938;48.652;9.292;2024-02-14T02:43:31;20.38;;;9.32;;
73642;SDS011;61938;48.652;9.292;2024-02-14T02:45:57;16.17;;;8.75;;
73642;SDS011;61938;48.652;9.292;2024-02-14T02:48:23;18.55;;;8.13;;
73642;SDS011;61938;48.652;9.292;2024-02-14T02:50:48;18.45;;;8.63;;
73642;SDS011;61938;48.652;9.292;2024-02-14T02:53:15;21.38;;;9.00;;
73642;SDS011;61938;48.652;9.292;2024-02-14T02:55:41;15.27;;;8.60;;
73642;SDS011;61938;48.652;9.292;2024-02-14T02:58:06;17.17;;;8.30;;
73642;SDS011;61938;48.652;9.292;2024-02-14T03:00:32;14.73;;;8.68;;
73642;SDS011;61938;48.652;9.292;2024-02-14T03:02:58;17.00;;;8.90;;
73642;SDS011;61938;48.652;9.292;2024-02-14T03:05:24;18.42;;;8.73;;
73642;SDS011;61938;48.652;9.292;2024-02-14T03:07:50;20.23;;;9.75;;
73642;SDS011;61938;48.652;9.292;2024-02-14T03:10:17;18.48;;;8.77;;
73642;SDS011;61938;48.652;9.292;2024-02-14T03:12:47;16.75;;;9.13;;
73642;SDS011;61938;48.652;9.292;2024-02-14T03:15:13;16.80;;;8.35;;
73642;SDS011;61938;48.652;9.292;2024-02-14T03:36:58;19.17;;;8.18;;
73642;SDS011;61938;48.652;9.292;2024-02-14T03:39:23;15.80;;;8.32;;
73642;SDS011;61938;48.652;9.292;2024-02-14T03:41:49;19.75;;;9.65;;
73642;SDS011;61938;48.652;9.292;2024-02-14T03:44:14;15.77;;;8.23;;
73642;SDS011;61938;48.652;9.292;2024-02-14T03:46:40;15.38;;;8.13;;
73642;SDS011;61938;48.652;9.292;2024-02-14T03:49:05;17.13;;;8.35;;
73642;SDS011;61938;48.652;9.292;2024-02-14T03:51:31;22.20;;;9.63;;
73642;SDS011;61938;48.652;9.292;2024-02-14T03:53:56;18.73;;;9.35;;
73642;SDS011;61938;48.652;9.292;2024-02-14T03:56:22;17.05;;;8.70;;
73642;SDS011;61938;48.652;9.292;2024-02-14T03:58:48;16.77;;;8.40;;
73642;SDS011;61938;48.652;9.292;2024-02-14T04:01:14;17.08;;;8.80;;
73642;SDS011;61938;48.652;9.292;2024-02-14T04:03:40;18.27;;;9.43;;
73642;SDS011;61938;48.652;9.292;2024-02-14T04:06:06;18.55;;;9.20;;
73642;SDS011;61938;48.652;9.292;2024-02-14T04:08:31;17.55;;;8.32;;
73642;SDS011;61938;48.652;9.292;2024-02-14T04:10:58;18.65;;;9.15;;
73642;SDS011;61938;48.652;9.292;2024-02-14T04:13:24;17.10;;;9.18;;
73642;SDS011;61938;48.652;9.292;2024-02-14T04:15:49;16.83;;;9.20;;
73642;SDS011;61938;48.652;9.292;2024-02-14T04:18:15;17.00;;;8.20;;
73642;SDS011;61938;48.652;9.292;2024-02-14T04:20:42;20.40;;;9.15;;
73642;SDS011;61938;48.652;9.292;2024-02-14T04:23:09;14.88;;;8.35;;
73642;SDS011;61938;48.652;9.292;2024-02-14T04:25:34;17.23;;;8.57;;
73642;SDS011;61938;48.652;9.292;2024-02-14T04:28:02;15.85;;;9.13;;
73642;SDS011;61938;48.652;9.292;2024-02-14T04:30:28;15.60;;;8.23;;
73642;SDS011;61938;48.652;9.292;2024-02-14T04:32:53;18.02;;;8.55;;
73642;SDS011;61938;48.652;9.292;2024-02-14T04:35:22;14.35;;;7.80;;
73642;SDS011;61938;48.652;9.292;2024-02-14T04:37:47;15.85;;;8.13;;
73642;SDS011;61938;48.652;9.292;2024-02-14T04:40:14;17.13;;;7.85;;
73642;SDS011;61938;48.652;9.292;2024-02-14T04:42:40;14.60;;;7.60;;
73642;SDS011;61938;48.652;9.292;2024-02-14T04:45:06;15.98;;;7.60;;
73642;SDS011;61938;48.652;9.292;2024-02-14T04:47:33;20.52;;;8.88;;
73642;SDS011;61938;48.652;9.292;2024-02-14T04:49:59;12.65;;;7.40;;
73642;SDS011;61938;48.652;9.292;2024-02-14T04:52:25;20.88;;;8.32;;
73642;SDS011;61938;48.652;9.292;2024-02-14T04:54:50;21.42;;;8.48;;
73642;SDS011;61938;48.652;9.292;2024-02-14T04:57:16;13.65;;;7.72;;
73642;SDS011;61938;48.652;9.292;2024-02-14T04:59:43;12.38;;;7.07;;
73642;SDS011;61938;48.652;9.292;2024-02-14T05:02:09;19.23;;;8.52;;
73642;SDS011;61938;48.652;9.292;2024-02-14T05:04:35;18.75;;;8.32;;
73642;SDS011;61938;48.652;9.292;2024-02-14T05:07:02;14.15;;;8.23;;
73642;SDS011;61938;48.652;9.292;2024-02-14T05:09:28;14.68;;;7.45;;
73642;SDS011;61938;48.652;9.292;2024-02-14T05:11:57;15.25;;;8.38;;
73642;SDS011;61938;48.652;9.292;2024-02-14T05:14:22;16.58;;;8.23;;
73642;SDS011;61938;48.652;9.292;2024-02-14T05:16:48;13.35;;;7.38;;
73642;SDS011;61938;48.652;9.292;2024-02-14T05:19:14;14.35;;;7.63;;
73642;SDS011;61938;48.652;9.292;2024-02-14T05:21:39;21.17;;;8.63;;
73642;SDS011;61938;48.652;9.292;2024-02-14T05:24:05;15.23;;;7.97;;
73642;SDS011;61938;48.652;9.292;2024-02-14T05:26:31;15.90;;;7.32;;
73642;SDS011;61938;48.652;9.292;2024-02-14T05:28:57;18.48;;;7.95;;
73642;SDS011;61938;48.652;9.292;2024-02-14T05:31:24;15.25;;;7.75;;
73642;SDS011;61938;48.652;9.292;2024-02-14T05:33:49;16.98;;;8.00;;
73642;SDS011;61938;48.652;9.292;2024-02-14T05:36:15;12.55;;;7.63;;
73642;SDS011;61938;48.652;9.292;2024-02-14T05:38:40;15.55;;;7.95;;
73642;SDS011;61938;48.652;9.292;2024-02-14T05:41:06;15.23;;;7.13;;
73642;SDS011;61938;48.652;9.292;2024-02-14T05:43:32;16.25;;;7.35;;
73642;SDS011;61938;48.652;9.292;2024-02-14T05:45:59;15.63;;;8.32;;
73642;SDS011;61938;48.652;9.292;2024-02-14T05:48:25;15.68;;;7.88;;
73642;SDS011;61938;48.652;9.292;2024-02-14T05:50:51;14.52;;;7.70;;
73642;SDS011;61938;48.652;9.292;2024-02-14T05:53:16;16.23;;;7.35;;
73642;SDS011;61938;48.652;9.292;2024-02-14T05:55:42;17.00;;;8.40;;
73642;SDS011;61938;48.652;9.292;2024-02-14T05:58:07;16.52;;;8.35;;
73642;SDS011;61938;48.652;9.292;2024-02-14T06:00:33;16.33;;;8.00;;
73642;SDS011;61938;48.652;9.292;2024-02-14T06:02:58;13.95;;;7.50;;
73642;SDS011;61938;48.652;9.292;2024-02-14T06:05:24;18.58;;;8.70;;
73642;SDS011;61938;48.652;9.292;2024-02-14T06:07:49;15.38;;;8.10;;
73642;SDS011;61938;48.652;9.292;2024-02-14T06:10:15;15.00;;;7.63;;
73642;SDS011;61938;48.652;9.292;2024-02-14T06:12:42;19.08;;;7.88;;
73642;SDS011;61938;48.652;9.292;2024-02-14T06:15:09;13.30;;;7.35;;
73642;SDS011;61938;48.652;9.292;2024-02-14T06:17:34;13.45;;;7.28;;
73642;SDS011;61938;48.652;9.292;2024-02-14T06:20:00;18.38;;;7.72;;
73642;SDS011;61938;48.652;9.292;2024-02-14T06:22:30;13.52;;;7.50;;
73642;SDS011;61938;48.652;9.292;2024-02-14T06:24:57;13.20;;;7.53;;
73642;SDS011;61938;48.652;9.292;2024-02-14T06:27:22;14.75;;;7.47;;
73642;SDS011;61938;48.652;9.292;2024-02-14T06:29:48;18.65;;;7.72;;
73642;SDS011;61938;48.652;9.292;2024-02-14T06:32:14;14.48;;;7.10;;
73642;SDS011;61938;48.652;9.292;2024-02-14T06:34:39;11.45;;;6.65;;
73642;SDS011;61938;48.652;9.292;2024-02-14T06:37:05;15.55;;;7.80;;
73642;SDS011;61938;48.652;9.292;2024-02-14T06:39:30;13.98;;;6.82;;
73642;SDS011;61938;48.652;9.292;2024-02-14T06:41:56;17.10;;;7.82;;
73642;SDS011;61938;48.652;9.292;2024-02-14T06:44:25;14.98;;;6.53;;
73642;SDS011;61938;48.652;9.292;2024-02-14T06:46:50;12.93;;;7.55;;
73642;SDS011;61938;48.652;9.292;2024-02-14T06:49:16;18.90;;;8.70;;
73642;SDS011;61938;48.652;9.292;2024-02-14T06:51:42;15.30;;;7.93;;
73642;SDS011;61938;48.652;9.292;2024-02-14T06:54:07;15.20;;;7.95;;
73642;SDS011;61938;48.652;9.292;2024-02-14T06:56:33;14.88;;;7.38;;
73642;SDS011;61938;48.652;9.292;2024-02-14T06:58:59;16.33;;;8.50;;
73642;SDS011;61938;48.652;9.292;2024-02-14T07:01:28;15.27;;;7.43;;
73642;SDS011;61938;48.652;9.292;2024-02-14T07:03:53;12.23;;;7.30;;
73642;SDS011;61938;48.652;9.292;2024-02-14T07:06:19;17.08;;;7.68;;
73642;SDS011;61938;48.652;9.292;2024-02-14T07:08:45;13.23;;;7.18;;
73642;SDS011;61938;48.652;9.292;2024-02-14T07:11:12;15.88;;;6.68;;
73642;SDS011;61938;48.652;9.292;2024-02-14T07:13:38;15.00;;;5.90;;
73642;SDS011;61938;48.652;9.292;2024-02-14T07:16:03;10.40;;;5.53;;
73642;SDS011;61938;48.652;9.292;2024-02-14T07:18:29;9.55;;;4.55;;
73642;SDS011;61938;48.652;9.292;2024-02-14T07:20:55;10.88;;;4.53;;
73642;SDS011;61938;48.652;9.292;2024-02-14T07:23:20;9.88;;;4.57;;
73642;SDS011;61938;48.652;9.292;2024-02-14T07:25:46;7.82;;;3.70;;
73642;SDS011;61938;48.652;9.292;2024-02-14T07:28:12;9.88;;;4.30;;
73642;SDS011;61938;48.652;9.292;2024-02-14T07:30:37;11.65;;;4.60;;
73642;SDS011;61938;48.652;9.292;2024-02-14T07:33:03;7.32;;;3.47;;
73642;SDS011;61938;48.652;9.292;2024-02-14T07:35:28;9.60;;;4.05;;
73642;SDS011;61938;48.652;9.292;2024-02-14T07:37:54;8.55;;;4.43;;
73642;SDS011;61938;48.652;9.292;2024-02-14T07:40:20;14.02;;;5.03;;
73642;SDS011;61938;48.652;9.292;2024-02-14T07:42:47;12.60;;;4.82;;
73642;SDS011;61938;48.652;9.292;2024-02-14T07:45:12;11.38;;;4.78;;
73642;SDS011;61938;48.652;9.292;2024-02-14T07:47:38;11.70;;;5.65;;
73642;SDS011;61938;48.652;9.292;2024-02-14T07:50:05;15.32;;;5.97;;
73642;SDS011;61938;48.652;9.292;2024-02-14T07:52:31;8.85;;;4.80;;
73642;SDS011;61938;48.652;9.292;2024-02-14T07:54:57;10.15;;;5.25;;
73642;SDS011;61938;48.652;9.292;2024-02-14T07:57:23;8.73;;;4.90;;
73642;SDS011;61938;48.652;9.292;2024-02-14T07:59:49;13.05;;;5.15;;
73642;SDS011;61938;48.652;9.292;2024-02-14T08:02:15;15.27;;;6.30;;
73642;SDS011;61938;48.652;9.292;2024-02-14T08:04:41;14.32;;;7.05;;
73642;SDS011;61938;48.652;9.292;2024-02-14T08:07:06;12.25;;;6.28;;
73642;SDS011;61938;48.652;9.292;2024-02-14T08:09:32;14.15;;;7.05;;
73642;SDS011;61938;48.652;9.292;2024-02-14T08:11:58;13.10;;;7.20;;
73642;SDS011;61938;48.652;9.292;2024-02-14T08:14:23;12.13;;;6.50;;
73642;SDS011;61938;48.652;9.292;2024-02-14T08:16:49;9.73;;;6.20;;
73642;SDS011;61938;48.652;9.292;2024-02-14T08:19:16;13.43;;;6.10;;
73642;SDS011;61938;48.652;9.292;2024-02-14T08:21:43;14.45;;;6.68;;
73642;SDS011;61938;48.652;9.292;2024-02-14T08:24:09;13.60;;;6.40;;
73642;SDS011;61938;48.652;9.292;2024-02-14T08:26:35;12.50;;;6.72;;
73642;SDS011;61938;48.652;9.292;2024-02-14T08:29:00;12.73;;;6.20;;
73642;SDS011;61938;48.652;9.292;2024-02-14T08:31:26;9.23;;;5.55;;
73642;SDS011;61938;48.652;9.292;2024-02-14T08:33:52;10.38;;;5.40;;
73642;SDS011;61938;48.652;9.292;2024-02-14T08:36:18;9.65;;;4.65;;
73642;SDS011;61938;48.652;9.292;2024-02-14T08:38:44;14.30;;;6.15;;
73642;SDS011;61938;48.652;9.292;2024-02-14T08:41:09;8.90;;;4.55;;
73642;SDS011;61938;48.652;9.292;2024-02-14T08:43:35;9.93;;;4.32;;
73642;SDS011;61938;48.652;9.292;2024-02-14T08:46:01;11.68;;;4.28;;
73642;SDS011;61938;48.652;9.292;2024-02-14T08:48:27;10.50;;;4.00;;
73642;SDS011;61938;48.652;9.292;2024-02-14T08:50:55;10.52;;;3.90;;
73642;SDS011;61938;48.652;9.292;2024-02-14T08:53:21;7.70;;;4.18;;
73642;SDS011;61938;48.652;9.292;2024-02-14T08:55:47;9.25;;;4.07;;
73642;SDS011;61938;48.652;9.292;2024-02-14T08:58:12;11.70;;;4.07;;
73642;SDS011;61938;48.652;9.292;2024-02-14T09:00:38;8.48;;;4.25;;
73642;SDS011;61938;48.652;9.292;2024-02-14T09:03:04;9.82;;;4.40;;
73642;SDS011;61938;48.652;9.292;2024-02-14T09:05:30;9.32;;;4.60;;
73642;SDS011;61938;48.652;9.292;2024-02-14T09:07:56;10.02;;;4.90;;
73642;SDS011;61938;48.652;9.292;2024-02-14T09:10:21;9.30;;;4.85;;
73642;SDS011;61938;48.652;9.292;2024-02-14T09:12:47;7.45;;;3.75;;
73642;SDS011;61938;48.652;9.292;2024-02-14T09:15:13;9.90;;;4.97;;
73642;SDS011;61938;48.652;9.292;2024-02-14T09:17:39;8.10;;;3.90;;
73642;SDS011;61938;48.652;9.292;2024-02-14T09:20:06;8.07;;;4.30;;
73642;SDS011;61938;48.652;9.292;2024-02-14T09:22:34;11.90;;;4.60;;
73642;SDS011;61938;48.652;9.292;2024-02-14T09:25:03;13.07;;;4.82;;
73642;SDS011;61938;48.652;9.292;2024-02-14T09:27:32;9.23;;;3.85;;
73642;SDS011;61938;48.652;9.292;2024-02-14T09:29:58;7.72;;;3.33;;
73642;SDS011;61938;48.652;9.292;2024-02-14T09:32:24;7.43;;;3.55;;
73642;SDS011;61938;48.652;9.292;2024-02-14T09:34:50;6.97;;;3.67;;
73642;SDS011;61938;48.652;9.292;2024-02-14T09:37:15;11.45;;;3.97;;
73642;SDS011;61938;48.652;9.292;2024-02-14T09:39:41;8.70;;;3.50;;
73642;SDS011;61938;48.652;9.292;2024-02-14T09:42:09;7.18;;;3.45;;
73642;SDS011;61938;48.652;9.292;2024-02-14T09:44:38;5.60;;;3.20;;
73642;SDS011;61938;48.652;9.292;2024-02-14T09:47:05;8.55;;;3.80;;
73642;SDS011;61938;48.652;9.292;2024-02-14T09:49:31;11.23;;;3.63;;
73642;SDS011;61938;48.652;9.292;2024-02-14T09:51:57;7.40;;;2.90;;
73642;SDS011;61938;48.652;9.292;2024-02-14T09:54:26;8.88;;;3.35;;
73642;SDS011;61938;48.652;9.292;2024-02-14T09:56:52;5.28;;;3.22;;
73642;SDS011;61938;48.652;9.292;2024-02-14T09:59:19;5.93;;;3.00;;
73642;SDS011;61938;48.652;9.292;2024-02-14T10:01:46;9.95;;;3.65;;
73642;SDS011;61938;48.652;9.292;2024-02-14T10:04:13;8.27;;;3.40;;
73642;SDS011;61938;48.652;9.292;2024-02-14T10:06:38;7.55;;;3.03;;
73642;SDS011;61938;48.652;9.292;2024-02-14T10:09:04;11.23;;;2.80;;
73642;SDS011;61938;48.652;9.292;2024-02-14T10:11:33;8.43;;;3.00;;
73642;SDS011;61938;48.652;9.292;2024-02-14T10:13:58;9.52;;;3.05;;
73642;SDS011;61938;48.652;9.292;2024-02-14T10:16:28;10.23;;;3.45;;
73642;SDS011;61938;48.652;9.292;2024-02-14T10:18:53;4.93;;;2.67;;
73642;SDS011;61938;48.652;9.292;2024-02-14T10:21:19;7.85;;;2.50;;
73642;SDS011;61938;48.652;9.292;2024-02-14T10:23:46;6.10;;;2.58;;
73642;SDS011;61938;48.652;9.292;2024-02-14T10:26:14;6.32;;;1.67;;
73642;SDS011;61938;48.652;9.292;2024-02-14T10:28:41;5.00;;;1.35;;
73642;SDS011;61938;48.652;9.292;2024-02-14T10:31:12;6.63;;;1.50;;
73642;SDS011;61938;48.652;9.292;2024-02-14T10:33:38;2.88;;;1.63;;
73642;SDS011;61938;48.652;9.292;2024-02-14T10:36:04;2.80;;;1.60;;
73642;SDS011;61938;48.652;9.292;2024-02-14T10:38:33;7.47;;;1.73;;
73642;SDS011;61938;48.652;9.292;2024-02-14T10:41:02;6.13;;;1.50;;
73642;SDS011;61938;48.652;9.292;2024-02-14T10:43:28;5.90;;;1.60;;
73642;SDS011;61938;48.652;9.292;2024-02-14T10:45:54;4.57;;;1.80;;
73642;SDS011;61938;48.652;9.292;2024-02-14T10:48:21;4.40;;;1.50;;
73642;SDS011;61938;48.652;9.292;2024-02-14T10:50:50;4.75;;;1.85;;
73642;SDS011;61938;48.652;9.292;2024-02-14T10:53:17;3.15;;;1.17;;
73642;SDS011;61938;48.652;9.292;2024-02-14T10:55:45;2.75;;;1.27;;
73642;SDS011;61938;48.652;9.292;2024-02-14T10:58:13;3.55;;;1.35;;
73642;SDS011;61938;48.652;9.292;2024-02-14T11:00:41;3.53;;;1.50;;
73642;SDS011;61938;48.652;9.292;2024-02-14T11:03:07;5.22;;;1.50;;
73642;SDS011;61938;48.652;9.292;2024-02-14T11:05:42;3.05;;;1.40;;
73642;SDS011;61938;48.652;9.292;2024-02-14T11:08:10;3.85;;;1.45;;
73642;SDS011;61938;48.652;9.292;2024-02-14T11:10:38;4.20;;;1.60;;
73642;SDS011;61938;48.652;9.292;2024-02-14T11:13:03;3.03;;;1.15;;
73642;SDS011;61938;48.652;9.292;2024-02-14T11:15:34;2.97;;;1.27;;
73642;SDS011;61938;48.652;9.292;2024-02-14T11:18:05;5.28;;;1.70;;
73642;SDS011;61938;48.652;9.292;2024-02-14T11:20:35;2.43;;;1.20;;
73642;SDS011;61938;48.652;9.292;2024-02-14T11:23:04;3.40;;;1.55;;
73642;SDS011;61938;48.652;9.292;2024-02-14T11:27:59;2.67;;;1.25;;
73642;SDS011;61938;48.652;9.292;2024-02-14T11:30:34;4.60;;;1.35;;
73642;SDS011;61938;48.652;9.292;2024-02-14T11:35:42;2.63;;;1.25;;
73642;SDS011;61938;48.652;9.292;2024-02-14T11:38:09;3.47;;;1.33;;
73642;SDS011;61938;48.652;9.292;2024-02-14T11:40:35;3.78;;;1.30;;
73642;SDS011;61938;48.652;9.292;2024-02-14T11:43:03;3.08;;;1.20;;
73642;SDS011;61938;48.652;9.292;2024-02-14T11:45:29;2.88;;;1.50;;
73642;SDS011;61938;48.652;9.292;2024-02-14T11:47:55;4.85;;;1.77;;
73642;SDS011;61938;48.652;9.292;2024-02-14T11:50:21;2.25;;;0.90;;
73642;SDS011;61938;48.652;9.292;2024-02-14T11:52:46;4.93;;;1.40;;
73642;SDS011;61938;48.652;9.292;2024-02-14T11:55:12;2.63;;;1.05;;
73642;SDS011;61938;48.652;9.292;2024-02-14T11:57:40;5.20;;;1.50;;
73642;SDS011;61938;48.652;9.292;2024-02-14T12:00:07;5.57;;;1.58;;
73642;SDS011;61938;48.652;9.292;2024-02-14T12:02:33;2.55;;;1.15;;
73642;SDS011;61938;48.652;9.292;2024-02-14T12:05:00;4.43;;;1.67;;
73642;SDS011;61938;48.652;9.292;2024-02-14T12:07:30;3.30;;;1.70;;
73642;SDS011;61938;48.652;9.292;2024-02-14T12:09:56;4.13;;;2.10;;
73642;SDS011;61938;48.652;9.292;2024-02-14T12:12:22;2.72;;;1.52;;
73642;SDS011;61938;48.652;9.292;2024-02-14T12:14:51;3.85;;;1.75;;
73642;SDS011;61938;48.652;9.292;2024-02-14T12:17:17;3.22;;;1.70;;
73642;SDS011;61938;48.652;9.292;2024-02-14T12:19:47;2.65;;;1.35;;
73642;SDS011;61938;48.652;9.292;2024-02-14T12:22:13;3.85;;;1.42;;
73642;SDS011;61938;48.652;9.292;2024-02-14T12:24:46;2.17;;;0.93;;
73642;SDS011;61938;48.652;9.292;2024-02-14T12:27:16;7.05;;;1.67;;
73642;SDS011;61938;48.652;9.292;2024-02-14T12:29:45;4.00;;;1.38;;
73642;SDS011;61938;48.652;9.292;2024-02-14T12:32:11;5.55;;;1.25;;
73642;SDS011;61938;48.652;9.292;2024-02-14T12:34:41;3.90;;;1.90;;
73642;SDS011;61938;48.652;9.292;2024-02-14T12:37:09;2.50;;;1.80;;
73642;SDS011;61938;48.652;9.292;2024-02-14T12:39:36;4.57;;;1.10;;
73642;SDS011;61938;48.652;9.292;2024-02-14T12:42:02;6.45;;;1.20;;
73642;SDS011;61938;48.652;9.292;2024-02-14T12:44:28;2.53;;;1.42;;
73642;SDS011;61938;48.652;9.292;2024-02-14T12:46:54;3.95;;;1.70;;
73642;SDS011;61938;48.652;9.292;2024-02-14T12:49:20;4.18;;;1.65;;
73642;SDS011;61938;48.652;9.292;2024-02-14T12:51:46;4.28;;;1.63;;
73642;SDS011;61938;48.652;9.292;2024-02-14T12:54:12;3.58;;;1.83;;
73642;SDS011;61938;48.652;9.292;2024-02-14T12:56:39;3.72;;;1.55;;
73642;SDS011;61938;48.652;9.292;2024-02-14T12:59:06;2.45;;;1.33;;
73642;SDS011;61938;48.652;9.292;2024-02-14T13:01:32;5.53;;;1.85;;
73642;SDS011;61938;48.652;9.292;2024-02-14T13:03:57;6.15;;;2.30;;
73642;SDS011;61938;48.652;9.292;2024-02-14T13:06:24;3.75;;;2.17;;
73642;SDS011;61938;48.652;9.292;2024-02-14T13:08:50;7.93;;;3.78;;
73642;SDS011;61938;48.652;9.292;2024-02-14T13:11:15;6.35;;;2.88;;
73642;SDS011;61938;48.652;9.292;2024-02-14T13:13:43;2.25;;;1.38;;
73642;SDS011;61938;48.652;9.292;2024-02-14T13:16:09;3.10;;;1.60;;
73642;SDS011;61938;48.652;9.292;2024-02-14T13:18:34;1.10;;;0.80;;
73642;SDS011;61938;48.652;9.292;2024-02-14T13:21:00;3.72;;;0.80;;
73642;SDS011;61938;48.652;9.292;2024-02-14T13:23:26;1.85;;;0.60;;
73642;SDS011;61938;48.652;9.292;2024-02-14T13:25:51;2.72;;;0.73;;
73642;SDS011;61938;48.652;9.292;2024-02-14T13:28:17;2.78;;;0.88;;
73642;SDS011;61938;48.652;9.292;2024-02-14T13:30:42;2.95;;;1.50;;
73642;SDS011;61938;48.652;9.292;2024-02-14T13:33:08;1.52;;;0.80;;
73642;SDS011;61938;48.652;9.292;2024-02-14T13:35:36;2.25;;;1.35;;
73642;SDS011;61938;48.652;9.292;2024-02-14T13:38:03;2.92;;;1.10;;
73642;SDS011;61938;48.652;9.292;2024-02-14T13:40:30;0.90;;;0.55;;
73642;SDS011;61938;48.652;9.292;2024-02-14T13:42:56;2.20;;;0.82;;
73642;SDS011;61938;48.652;9.292;2024-02-14T13:45:22;1.27;;;0.70;;
73642;SDS011;61938;48.652;9.292;2024-02-14T13:47:48;1.52;;;0.70;;
73642;SDS011;61938;48.652;9.292;2024-02-14T13:50:13;3.05;;;0.77;;
73642;SDS011;61938;48.652;9.292;2024-02-14T13:52:39;0.95;;;0.73;;
73642;SDS011;61938;48.652;9.292;2024-02-14T13:55:05;2.80;;;1.40;;
73642;SDS011;61938;48.652;9.292;2024-02-14T13:57:38;2.47;;;1.38;;
73642;SDS011;61938;48.652;9.292;2024-02-14T14:00:04;3.15;;;1.60;;
73642;SDS011;61938;48.652;9.292;2024-02-14T14:02:30;2.90;;;0.80;;
73642;SDS011;61938;48.652;9.292;2024-02-14T14:04:56;1.05;;;0.60;;
73642;SDS011;61938;48.652;9.292;2024-02-14T14:07:22;1.23;;;0.63;;
73642;SDS011;61938;48.652;9.292;2024-02-14T14:09:48;2.08;;;0.95;;
73642;SDS011;61938;48.652;9.292;2024-02-14T14:12:14;1.65;;;1.10;;
73642;SDS011;61938;48.652;9.292;2024-02-14T14:14:40;3.30;;;1.13;;
73642;SDS011;61938;48.652;9.292;2024-02-14T14:17:05;1.33;;;0.80;;
73642;SDS011;61938;48.652;9.292;2024-02-14T14:19:31;2.47;;;0.98;;
73642;SDS011;61938;48.652;9.292;2024-02-14T14:21:56;1.13;;;0.70;;
73642;SDS011;61938;48.652;9.292;2024-02-14T14:24:22;1.50;;;1.00;;
73642;SDS011;61938;48.652;9.292;2024-02-14T14:26:48;2.17;;;0.90;;
73642;SDS011;61938;48.652;9.292;2024-02-14T14:29:15;3.33;;;1.38;;
73642;SDS011;61938;48.652;9.292;2024-02-14T14:31:41;2.30;;;1.45;;
73642;SDS011;61938;48.652;9.292;2024-02-14T14:34:07;5.45;;;1.80;;
73642;SDS011;61938;48.652;9.292;2024-02-14T14:36:33;2.53;;;1.52;;
73642;SDS011;61938;48.652;9.292;2024-02-14T14:38:59;3.47;;;1.58;;
73642;SDS011;61938;48.652;9.292;2024-02-14T14:41:25;2.90;;;1.33;;
73642;SDS011;61938;48.652;9.292;2024-02-14T14:43:51;2.05;;;1.50;;
73642;SDS011;61938;48.652;9.292;2024-02-14T14:46:16;2.55;;;1.30;;
73642;SDS011;61938;48.652;9.292;2024-02-14T14:48:42;2.10;;;1.10;;
73642;SDS011;61938;48.652;9.292;2024-02-14T14:51:07;2.47;;;1.40;;
73642;SDS011;61938;48.652;9.292;2024-02-14T14:53:33;1.73;;;1.10;;
73642;SDS011;61938;48.652;9.292;2024-02-14T14:56:00;2.00;;;1.20;;
73642;SDS011;61938;48.652;9.292;2024-02-14T14:58:26;2.47;;;1.33;;